sensor_id;sensor_type;location;lat;lon;timestamp;P1;durP1;ratioP1;P2;durP2;ratioP2
20411;SDS011;10365;52.578;8.138;2023-02-17T00:02:18;64.75;;;36.28;;
20411;SDS011;10365;52.578;8.138;2023-02-17T00:04:44;66.00;;;35.85;;
20411;SDS011;10365;52.578;8.138;2023-02-17T00:07:09;72.95;;;36.63;;
20411;SDS011;10365;52.578;8.138;2023-02-17T00:09:35;72.82;;;35.67;;
20411;SDS011;10365;52.578;8.138;2023-02-17T00:12:00;63.83;;;34.33;;
20411;SDS011;10365;52.578;8.138;2023-02-17T00:14:26;66.10;;;36.10;;
20411;SDS011;10365;52.578;8.138;2023-02-17T00:16:51;64.65;;;35.58;;
20411;SDS011;10365;52.578;8.138;2023-02-17T00:19:16;63.72;;;35.03;;
20411;SDS011;10365;52.578;8.138;2023-02-17T00:21:52;68.93;;;34.90;;
20411;SDS011;10365;52.578;8.138;2023-02-17T00:24:17;67.20;;;35.60;;
20411;SDS011;10365;52.578;8.138;2023-02-17T00:26:42;61.28;;;36.47;;
20411;SDS011;10365;52.578;8.138;2023-02-17T00:29:08;66.43;;;34.17;;
20411;SDS011;10365;52.578;8.138;2023-02-17T00:31:33;67.03;;;34.58;;
20411;SDS011;10365;52.578;8.138;2023-02-17T00:33:58;68.50;;;35.00;;
20411;SDS011;10365;52.578;8.138;2023-02-17T00:36:25;71.15;;;35.25;;
20411;SDS011;10365;52.578;8.138;2023-02-17T00:38:52;64.00;;;33.90;;
20411;SDS011;10365;52.578;8.138;2023-02-17T00:41:17;59.72;;;33.10;;
20411;SDS011;10365;52.578;8.138;2023-02-17T00:43:43;61.65;;;34.35;;
20411;SDS011;10365;52.578;8.138;2023-02-17T00:46:08;67.63;;;35.42;;
20411;SDS011;10365;52.578;8.138;2023-02-17T00:48:33;68.60;;;35.22;;
20411;SDS011;10365;52.578;8.138;2023-02-17T00:50:59;67.50;;;34.08;;
20411;SDS011;10365;52.578;8.138;2023-02-17T00:53:25;64.53;;;34.28;;
20411;SDS011;10365;52.578;8.138;2023-02-17T00:55:50;64.40;;;33.50;;
20411;SDS011;10365;52.578;8.138;2023-02-17T00:58:15;61.63;;;32.92;;
20411;SDS011;10365;52.578;8.138;2023-02-17T01:00:41;61.80;;;33.67;;
20411;SDS011;10365;52.578;8.138;2023-02-17T01:03:07;62.50;;;32.60;;
20411;SDS011;10365;52.578;8.138;2023-02-17T01:05:32;72.13;;;35.97;;
20411;SDS011;10365;52.578;8.138;2023-02-17T01:07:57;56.28;;;32.35;;
20411;SDS011;10365;52.578;8.138;2023-02-17T01:10:23;60.67;;;33.53;;
20411;SDS011;10365;52.578;8.138;2023-02-17T01:12:48;62.35;;;34.53;;
20411;SDS011;10365;52.578;8.138;2023-02-17T01:15:14;65.45;;;34.83;;
20411;SDS011;10365;52.578;8.138;2023-02-17T01:17:41;63.50;;;33.22;;
20411;SDS011;10365;52.578;8.138;2023-02-17T01:20:06;63.40;;;32.72;;
20411;SDS011;10365;52.578;8.138;2023-02-17T01:22:32;66.78;;;33.67;;
20411;SDS011;10365;52.578;8.138;2023-02-17T01:24:57;63.95;;;32.70;;
20411;SDS011;10365;52.578;8.138;2023-02-17T01:27:25;66.63;;;33.97;;
20411;SDS011;10365;52.578;8.138;2023-02-17T01:29:53;65.47;;;33.95;;
20411;SDS011;10365;52.578;8.138;2023-02-17T01:32:18;60.90;;;34.03;;
20411;SDS011;10365;52.578;8.138;2023-02-17T01:34:43;62.15;;;33.35;;
20411;SDS011;10365;52.578;8.138;2023-02-17T01:37:09;68.70;;;33.47;;
20411;SDS011;10365;52.578;8.138;2023-02-17T01:39:34;68.05;;;34.58;;
20411;SDS011;10365;52.578;8.138;2023-02-17T01:42:00;67.57;;;33.85;;
20411;SDS011;10365;52.578;8.138;2023-02-17T01:44:25;71.03;;;33.78;;
20411;SDS011;10365;52.578;8.138;2023-02-17T01:46:52;70.22;;;34.42;;
20411;SDS011;10365;52.578;8.138;2023-02-17T01:51:46;64.13;;;30.50;;
20411;SDS011;10365;52.578;8.138;2023-02-17T01:54:21;64.45;;;32.60;;
20411;SDS011;10365;52.578;8.138;2023-02-17T01:56:48;65.07;;;32.50;;
20411;SDS011;10365;52.578;8.138;2023-02-17T01:59:18;64.50;;;31.80;;
20411;SDS011;10365;52.578;8.138;2023-02-17T02:01:44;65.25;;;31.63;;
20411;SDS011;10365;52.578;8.138;2023-02-17T02:04:10;66.05;;;31.67;;
20411;SDS011;10365;52.578;8.138;2023-02-17T02:06:39;65.97;;;32.13;;
20411;SDS011;10365;52.578;8.138;2023-02-17T02:09:15;64.97;;;31.77;;
20411;SDS011;10365;52.578;8.138;2023-02-17T02:11:42;60.65;;;30.80;;
20411;SDS011;10365;52.578;8.138;2023-02-17T02:14:07;63.55;;;31.35;;
20411;SDS011;10365;52.578;8.138;2023-02-17T02:16:55;63.63;;;31.48;;
20411;SDS011;10365;52.578;8.138;2023-02-17T02:19:41;62.88;;;30.42;;
20411;SDS011;10365;52.578;8.138;2023-02-17T02:24:58;55.90;;;29.65;;
20411;SDS011;10365;52.578;8.138;2023-02-17T02:33:09;58.30;;;30.15;;
20411;SDS011;10365;52.578;8.138;2023-02-17T02:35:36;51.88;;;27.90;;
20411;SDS011;10365;52.578;8.138;2023-02-17T02:40:33;54.00;;;28.27;;
20411;SDS011;10365;52.578;8.138;2023-02-17T02:43:01;56.67;;;27.85;;
20411;SDS011;10365;52.578;8.138;2023-02-17T02:45:27;59.05;;;28.00;;
20411;SDS011;10365;52.578;8.138;2023-02-17T02:47:53;57.70;;;29.42;;
20411;SDS011;10365;52.578;8.138;2023-02-17T02:58:46;58.15;;;29.35;;
20411;SDS011;10365;52.578;8.138;2023-02-17T03:01:23;57.65;;;29.27;;
20411;SDS011;10365;52.578;8.138;2023-02-17T03:09:03;71.43;;;33.85;;
20411;SDS011;10365;52.578;8.138;2023-02-17T03:11:29;69.22;;;32.40;;
20411;SDS011;10365;52.578;8.138;2023-02-17T03:14:04;62.92;;;30.80;;
20411;SDS011;10365;52.578;8.138;2023-02-17T03:16:31;68.80;;;32.90;;
20411;SDS011;10365;52.578;8.138;2023-02-17T03:18:57;64.13;;;32.00;;
20411;SDS011;10365;52.578;8.138;2023-02-17T03:21:25;64.32;;;32.90;;
20411;SDS011;10365;52.578;8.138;2023-02-17T03:23:51;69.22;;;33.53;;
20411;SDS011;10365;52.578;8.138;2023-02-17T03:26:16;70.75;;;33.42;;
20411;SDS011;10365;52.578;8.138;2023-02-17T03:28:44;72.15;;;33.90;;
20411;SDS011;10365;52.578;8.138;2023-02-17T03:31:09;73.57;;;33.50;;
20411;SDS011;10365;52.578;8.138;2023-02-17T03:33:34;77.18;;;33.53;;
20411;SDS011;10365;52.578;8.138;2023-02-17T03:36:00;70.90;;;34.97;;
20411;SDS011;10365;52.578;8.138;2023-02-17T03:38:25;79.05;;;35.90;;
20411;SDS011;10365;52.578;8.138;2023-02-17T03:40:50;72.45;;;34.72;;
20411;SDS011;10365;52.578;8.138;2023-02-17T03:43:18;77.78;;;33.67;;
20411;SDS011;10365;52.578;8.138;2023-02-17T03:45:43;70.22;;;31.52;;
20411;SDS011;10365;52.578;8.138;2023-02-17T03:48:08;69.85;;;32.35;;
20411;SDS011;10365;52.578;8.138;2023-02-17T03:50:34;76.10;;;32.83;;
20411;SDS011;10365;52.578;8.138;2023-02-17T03:52:59;76.03;;;32.97;;
20411;SDS011;10365;52.578;8.138;2023-02-17T03:55:24;77.30;;;32.45;;
20411;SDS011;10365;52.578;8.138;2023-02-17T03:57:50;79.07;;;33.50;;
20411;SDS011;10365;52.578;8.138;2023-02-17T04:00:15;71.93;;;33.90;;
20411;SDS011;10365;52.578;8.138;2023-02-17T04:02:40;63.65;;;31.00;;
20411;SDS011;10365;52.578;8.138;2023-02-17T04:05:06;73.53;;;33.17;;
20411;SDS011;10365;52.578;8.138;2023-02-17T04:07:31;67.43;;;32.75;;
20411;SDS011;10365;52.578;8.138;2023-02-17T04:09:56;70.80;;;31.85;;
20411;SDS011;10365;52.578;8.138;2023-02-17T04:12:22;72.28;;;34.33;;
20411;SDS011;10365;52.578;8.138;2023-02-17T04:14:47;73.40;;;33.50;;
20411;SDS011;10365;52.578;8.138;2023-02-17T04:17:12;70.90;;;31.88;;
20411;SDS011;10365;52.578;8.138;2023-02-17T04:19:38;72.72;;;32.30;;
20411;SDS011;10365;52.578;8.138;2023-02-17T04:22:03;76.03;;;33.15;;
20411;SDS011;10365;52.578;8.138;2023-02-17T04:24:32;74.43;;;33.63;;
20411;SDS011;10365;52.578;8.138;2023-02-17T04:26:58;70.72;;;32.97;;
20411;SDS011;10365;52.578;8.138;2023-02-17T04:29:24;66.35;;;31.50;;
20411;SDS011;10365;52.578;8.138;2023-02-17T04:31:49;65.90;;;31.30;;
20411;SDS011;10365;52.578;8.138;2023-02-17T04:34:14;63.50;;;31.42;;
20411;SDS011;10365;52.578;8.138;2023-02-17T04:36:40;61.97;;;31.45;;
20411;SDS011;10365;52.578;8.138;2023-02-17T04:39:05;66.22;;;30.75;;
20411;SDS011;10365;52.578;8.138;2023-02-17T04:41:30;65.57;;;31.35;;
20411;SDS011;10365;52.578;8.138;2023-02-17T04:43:56;63.22;;;31.05;;
20411;SDS011;10365;52.578;8.138;2023-02-17T04:46:21;62.22;;;30.60;;
20411;SDS011;10365;52.578;8.138;2023-02-17T04:48:46;62.42;;;30.73;;
20411;SDS011;10365;52.578;8.138;2023-02-17T04:51:11;61.58;;;29.77;;
20411;SDS011;10365;52.578;8.138;2023-02-17T04:53:37;63.30;;;29.30;;
20411;SDS011;10365;52.578;8.138;2023-02-17T04:56:02;60.70;;;28.67;;
20411;SDS011;10365;52.578;8.138;2023-02-17T04:58:29;54.10;;;27.30;;
20411;SDS011;10365;52.578;8.138;2023-02-17T05:00:57;55.10;;;26.75;;
20411;SDS011;10365;52.578;8.138;2023-02-17T05:03:22;59.28;;;27.40;;
20411;SDS011;10365;52.578;8.138;2023-02-17T05:05:48;50.65;;;25.15;;
20411;SDS011;10365;52.578;8.138;2023-02-17T05:08:13;51.22;;;25.45;;
20411;SDS011;10365;52.578;8.138;2023-02-17T05:10:39;47.33;;;24.50;;
20411;SDS011;10365;52.578;8.138;2023-02-17T05:13:04;45.95;;;23.58;;
20411;SDS011;10365;52.578;8.138;2023-02-17T05:15:29;55.47;;;25.42;;
20411;SDS011;10365;52.578;8.138;2023-02-17T05:17:55;46.10;;;22.23;;
20411;SDS011;10365;52.578;8.138;2023-02-17T05:20:20;43.22;;;22.30;;
20411;SDS011;10365;52.578;8.138;2023-02-17T05:22:45;42.42;;;22.45;;
20411;SDS011;10365;52.578;8.138;2023-02-17T05:25:11;48.92;;;23.42;;
20411;SDS011;10365;52.578;8.138;2023-02-17T05:27:36;46.70;;;23.15;;
20411;SDS011;10365;52.578;8.138;2023-02-17T05:30:01;41.55;;;20.63;;
20411;SDS011;10365;52.578;8.138;2023-02-17T05:32:27;44.33;;;20.85;;
20411;SDS011;10365;52.578;8.138;2023-02-17T05:34:52;45.00;;;20.98;;
20411;SDS011;10365;52.578;8.138;2023-02-17T05:37:17;40.38;;;20.27;;
20411;SDS011;10365;52.578;8.138;2023-02-17T05:39:43;39.65;;;19.13;;
20411;SDS011;10365;52.578;8.138;2023-02-17T05:42:08;40.40;;;20.27;;
20411;SDS011;10365;52.578;8.138;2023-02-17T05:44:34;41.83;;;19.70;;
20411;SDS011;10365;52.578;8.138;2023-02-17T05:46:59;41.92;;;18.92;;
20411;SDS011;10365;52.578;8.138;2023-02-17T05:49:24;39.65;;;19.48;;
20411;SDS011;10365;52.578;8.138;2023-02-17T05:51:49;34.75;;;18.02;;
20411;SDS011;10365;52.578;8.138;2023-02-17T05:54:15;35.95;;;18.67;;
20411;SDS011;10365;52.578;8.138;2023-02-17T05:56:40;35.38;;;17.85;;
20411;SDS011;10365;52.578;8.138;2023-02-17T05:59:05;35.42;;;19.52;;
20411;SDS011;10365;52.578;8.138;2023-02-17T06:01:31;33.70;;;18.38;;
20411;SDS011;10365;52.578;8.138;2023-02-17T06:03:56;35.88;;;17.63;;
20411;SDS011;10365;52.578;8.138;2023-02-17T06:06:21;31.17;;;17.48;;
20411;SDS011;10365;52.578;8.138;2023-02-17T06:08:47;31.92;;;16.90;;
20411;SDS011;10365;52.578;8.138;2023-02-17T06:11:12;32.33;;;18.13;;
20411;SDS011;10365;52.578;8.138;2023-02-17T06:13:38;30.33;;;17.77;;
20411;SDS011;10365;52.578;8.138;2023-02-17T06:16:03;32.15;;;18.00;;
20411;SDS011;10365;52.578;8.138;2023-02-17T06:18:28;30.45;;;16.45;;
20411;SDS011;10365;52.578;8.138;2023-02-17T06:20:54;27.70;;;16.65;;
20411;SDS011;10365;52.578;8.138;2023-02-17T06:23:21;29.65;;;17.13;;
20411;SDS011;10365;52.578;8.138;2023-02-17T06:25:46;29.63;;;16.70;;
20411;SDS011;10365;52.578;8.138;2023-02-17T06:28:11;34.40;;;17.42;;
20411;SDS011;10365;52.578;8.138;2023-02-17T06:30:36;28.75;;;16.27;;
20411;SDS011;10365;52.578;8.138;2023-02-17T06:33:02;24.52;;;15.18;;
20411;SDS011;10365;52.578;8.138;2023-02-17T06:35:27;29.10;;;16.10;;
20411;SDS011;10365;52.578;8.138;2023-02-17T06:37:53;26.08;;;15.90;;
20411;SDS011;10365;52.578;8.138;2023-02-17T06:40:18;26.77;;;15.57;;
20411;SDS011;10365;52.578;8.138;2023-02-17T06:42:43;26.33;;;16.38;;
20411;SDS011;10365;52.578;8.138;2023-02-17T06:45:09;28.55;;;17.10;;
20411;SDS011;10365;52.578;8.138;2023-02-17T06:47:34;24.75;;;15.80;;
20411;SDS011;10365;52.578;8.138;2023-02-17T06:49:59;28.55;;;16.17;;
20411;SDS011;10365;52.578;8.138;2023-02-17T06:52:25;29.85;;;16.63;;
20411;SDS011;10365;52.578;8.138;2023-02-17T06:54:50;28.48;;;16.55;;
20411;SDS011;10365;52.578;8.138;2023-02-17T06:57:16;28.17;;;16.63;;
20411;SDS011;10365;52.578;8.138;2023-02-17T06:59:41;24.52;;;15.35;;
20411;SDS011;10365;52.578;8.138;2023-02-17T07:02:08;27.73;;;15.85;;
20411;SDS011;10365;52.578;8.138;2023-02-17T07:04:36;25.00;;;15.75;;
20411;SDS011;10365;52.578;8.138;2023-02-17T07:07:01;27.98;;;16.80;;
20411;SDS011;10365;52.578;8.138;2023-02-17T07:09:26;26.67;;;15.90;;
20411;SDS011;10365;52.578;8.138;2023-02-17T07:11:52;27.55;;;16.33;;
20411;SDS011;10365;52.578;8.138;2023-02-17T07:14:17;30.77;;;17.88;;
20411;SDS011;10365;52.578;8.138;2023-02-17T07:16:42;30.60;;;18.23;;
20411;SDS011;10365;52.578;8.138;2023-02-17T07:19:08;30.75;;;17.58;;
20411;SDS011;10365;52.578;8.138;2023-02-17T07:21:33;33.50;;;18.73;;
20411;SDS011;10365;52.578;8.138;2023-02-17T07:23:58;35.95;;;20.00;;
20411;SDS011;10365;52.578;8.138;2023-02-17T07:26:23;34.50;;;18.52;;
20411;SDS011;10365;52.578;8.138;2023-02-17T07:28:49;31.55;;;16.65;;
20411;SDS011;10365;52.578;8.138;2023-02-17T07:31:15;32.97;;;16.63;;
20411;SDS011;10365;52.578;8.138;2023-02-17T07:33:41;30.55;;;16.95;;
20411;SDS011;10365;52.578;8.138;2023-02-17T07:36:11;33.08;;;18.23;;
20411;SDS011;10365;52.578;8.138;2023-02-17T07:38:37;33.50;;;17.30;;
20411;SDS011;10365;52.578;8.138;2023-02-17T07:41:06;31.15;;;16.17;;
20411;SDS011;10365;52.578;8.138;2023-02-17T07:43:32;28.88;;;14.77;;
20411;SDS011;10365;52.578;8.138;2023-02-17T07:45:57;31.88;;;15.82;;
20411;SDS011;10365;52.578;8.138;2023-02-17T07:48:23;26.48;;;15.02;;
20411;SDS011;10365;52.578;8.138;2023-02-17T07:50:48;26.65;;;14.93;;
20411;SDS011;10365;52.578;8.138;2023-02-17T07:53:13;29.83;;;15.15;;
20411;SDS011;10365;52.578;8.138;2023-02-17T07:55:38;30.13;;;15.85;;
20411;SDS011;10365;52.578;8.138;2023-02-17T07:58:04;28.27;;;16.00;;
20411;SDS011;10365;52.578;8.138;2023-02-17T08:00:29;26.77;;;14.70;;
20411;SDS011;10365;52.578;8.138;2023-02-17T08:02:55;28.90;;;13.68;;
20411;SDS011;10365;52.578;8.138;2023-02-17T08:05:20;23.05;;;12.90;;
20411;SDS011;10365;52.578;8.138;2023-02-17T08:07:46;25.73;;;13.30;;
20411;SDS011;10365;52.578;8.138;2023-02-17T08:10:11;36.08;;;17.27;;
20411;SDS011;10365;52.578;8.138;2023-02-17T08:12:56;28.33;;;15.05;;
20411;SDS011;10365;52.578;8.138;2023-02-17T08:15:39;25.67;;;13.15;;
20411;SDS011;10365;52.578;8.138;2023-02-17T08:18:05;26.77;;;13.65;;
20411;SDS011;10365;52.578;8.138;2023-02-17T08:20:31;27.52;;;14.43;;
20411;SDS011;10365;52.578;8.138;2023-02-17T08:22:56;29.77;;;14.73;;
20411;SDS011;10365;52.578;8.138;2023-02-17T08:25:21;27.15;;;14.70;;
20411;SDS011;10365;52.578;8.138;2023-02-17T08:27:46;31.38;;;14.38;;
20411;SDS011;10365;52.578;8.138;2023-02-17T08:30:12;31.15;;;15.07;;
20411;SDS011;10365;52.578;8.138;2023-02-17T08:32:37;26.75;;;13.93;;
20411;SDS011;10365;52.578;8.138;2023-02-17T08:35:03;31.52;;;15.50;;
20411;SDS011;10365;52.578;8.138;2023-02-17T08:37:29;29.33;;;15.25;;
20411;SDS011;10365;52.578;8.138;2023-02-17T08:39:55;33.35;;;16.10;;
20411;SDS011;10365;52.578;8.138;2023-02-17T08:42:24;32.42;;;16.10;;
20411;SDS011;10365;52.578;8.138;2023-02-17T08:44:49;31.50;;;16.70;;
20411;SDS011;10365;52.578;8.138;2023-02-17T08:47:14;33.42;;;16.23;;
20411;SDS011;10365;52.578;8.138;2023-02-17T08:49:40;31.55;;;16.25;;
20411;SDS011;10365;52.578;8.138;2023-02-17T08:52:05;32.05;;;16.83;;
20411;SDS011;10365;52.578;8.138;2023-02-17T08:54:30;31.48;;;15.52;;
20411;SDS011;10365;52.578;8.138;2023-02-17T08:56:56;32.30;;;16.88;;
20411;SDS011;10365;52.578;8.138;2023-02-17T08:59:22;30.30;;;16.52;;
20411;SDS011;10365;52.578;8.138;2023-02-17T09:01:48;33.17;;;17.17;;
20411;SDS011;10365;52.578;8.138;2023-02-17T09:04:13;29.85;;;15.60;;
20411;SDS011;10365;52.578;8.138;2023-02-17T09:06:43;33.88;;;18.92;;
20411;SDS011;10365;52.578;8.138;2023-02-17T09:09:09;33.72;;;16.10;;
20411;SDS011;10365;52.578;8.138;2023-02-17T09:11:35;27.38;;;15.75;;
20411;SDS011;10365;52.578;8.138;2023-02-17T09:14:00;32.08;;;17.08;;
20411;SDS011;10365;52.578;8.138;2023-02-17T09:16:26;33.70;;;16.45;;
20411;SDS011;10365;52.578;8.138;2023-02-17T09:18:52;28.58;;;16.23;;
20411;SDS011;10365;52.578;8.138;2023-02-17T09:21:18;30.05;;;15.70;;
20411;SDS011;10365;52.578;8.138;2023-02-17T09:23:44;32.35;;;16.08;;
20411;SDS011;10365;52.578;8.138;2023-02-17T09:26:11;29.38;;;16.40;;
20411;SDS011;10365;52.578;8.138;2023-02-17T09:28:37;29.85;;;15.82;;
20411;SDS011;10365;52.578;8.138;2023-02-17T09:31:13;26.98;;;14.55;;
20411;SDS011;10365;52.578;8.138;2023-02-17T09:33:39;27.90;;;15.48;;
20411;SDS011;10365;52.578;8.138;2023-02-17T09:36:05;27.23;;;15.40;;
20411;SDS011;10365;52.578;8.138;2023-02-17T09:38:30;26.23;;;14.88;;
20411;SDS011;10365;52.578;8.138;2023-02-17T09:40:56;22.73;;;13.35;;
20411;SDS011;10365;52.578;8.138;2023-02-17T09:43:27;26.95;;;15.23;;
20411;SDS011;10365;52.578;8.138;2023-02-17T09:45:55;29.25;;;15.32;;
20411;SDS011;10365;52.578;8.138;2023-02-17T09:48:22;24.48;;;14.15;;
20411;SDS011;10365;52.578;8.138;2023-02-17T09:50:54;24.30;;;14.13;;
20411;SDS011;10365;52.578;8.138;2023-02-17T09:55:52;29.38;;;16.05;;
20411;SDS011;10365;52.578;8.138;2023-02-17T09:58:23;26.25;;;14.88;;
20411;SDS011;10365;52.578;8.138;2023-02-17T10:00:50;26.50;;;14.80;;
20411;SDS011;10365;52.578;8.138;2023-02-17T10:03:25;28.77;;;15.13;;
20411;SDS011;10365;52.578;8.138;2023-02-17T10:06:04;24.05;;;14.27;;
20411;SDS011;10365;52.578;8.138;2023-02-17T10:13:43;26.48;;;14.13;;
20411;SDS011;10365;52.578;8.138;2023-02-17T10:16:10;25.67;;;13.73;;
20411;SDS011;10365;52.578;8.138;2023-02-17T10:18:45;26.58;;;14.95;;
20411;SDS011;10365;52.578;8.138;2023-02-17T10:21:16;21.30;;;12.82;;
20411;SDS011;10365;52.578;8.138;2023-02-17T10:23:46;26.85;;;14.40;;
20411;SDS011;10365;52.578;8.138;2023-02-17T10:31:12;24.58;;;13.50;;
20411;SDS011;10365;52.578;8.138;2023-02-17T10:41:07;19.45;;;12.48;;
20411;SDS011;10365;52.578;8.138;2023-02-17T10:43:35;21.52;;;12.88;;
20411;SDS011;10365;52.578;8.138;2023-02-17T10:46:01;20.52;;;12.32;;
20411;SDS011;10365;52.578;8.138;2023-02-17T10:48:33;21.38;;;12.90;;
20411;SDS011;10365;52.578;8.138;2023-02-17T10:51:00;17.67;;;11.32;;
20411;SDS011;10365;52.578;8.138;2023-02-17T10:53:30;21.17;;;12.60;;
20411;SDS011;10365;52.578;8.138;2023-02-17T10:56:02;18.27;;;10.90;;
20411;SDS011;10365;52.578;8.138;2023-02-17T10:58:33;17.98;;;11.25;;
20411;SDS011;10365;52.578;8.138;2023-02-17T11:01:00;21.23;;;11.50;;
20411;SDS011;10365;52.578;8.138;2023-02-17T11:03:29;19.30;;;11.63;;
20411;SDS011;10365;52.578;8.138;2023-02-17T11:05:59;18.38;;;11.60;;
20411;SDS011;10365;52.578;8.138;2023-02-17T11:08:27;20.23;;;11.25;;
20411;SDS011;10365;52.578;8.138;2023-02-17T11:10:58;26.70;;;15.10;;
20411;SDS011;10365;52.578;8.138;2023-02-17T11:13:39;19.40;;;11.55;;
20411;SDS011;10365;52.578;8.138;2023-02-17T11:16:18;21.48;;;10.73;;
20411;SDS011;10365;52.578;8.138;2023-02-17T11:18:45;18.55;;;11.57;;
20411;SDS011;10365;52.578;8.138;2023-02-17T11:21:12;18.17;;;12.32;;
20411;SDS011;10365;52.578;8.138;2023-02-17T11:23:48;17.92;;;10.27;;
20411;SDS011;10365;52.578;8.138;2023-02-17T11:26:20;16.92;;;10.48;;
20411;SDS011;10365;52.578;8.138;2023-02-17T11:28:46;18.00;;;11.18;;
20411;SDS011;10365;52.578;8.138;2023-02-17T11:31:21;17.50;;;10.48;;
20411;SDS011;10365;52.578;8.138;2023-02-17T11:33:47;15.45;;;9.07;;
20411;SDS011;10365;52.578;8.138;2023-02-17T11:36:21;14.60;;;9.68;;
20411;SDS011;10365;52.578;8.138;2023-02-17T11:38:46;15.52;;;9.57;;
20411;SDS011;10365;52.578;8.138;2023-02-17T11:41:12;19.42;;;10.32;;
20411;SDS011;10365;52.578;8.138;2023-02-17T11:43:38;14.60;;;10.38;;
20411;SDS011;10365;52.578;8.138;2023-02-17T11:46:07;13.90;;;9.13;;
20411;SDS011;10365;52.578;8.138;2023-02-17T11:56:22;13.85;;;8.70;;
20411;SDS011;10365;52.578;8.138;2023-02-17T11:58:58;15.45;;;8.63;;
20411;SDS011;10365;52.578;8.138;2023-02-17T12:06:23;11.30;;;7.45;;
20411;SDS011;10365;52.578;8.138;2023-02-17T12:11:21;11.75;;;7.28;;
20411;SDS011;10365;52.578;8.138;2023-02-17T12:19:19;12.10;;;7.85;;
20411;SDS011;10365;52.578;8.138;2023-02-17T12:26:45;11.57;;;7.07;;
20411;SDS011;10365;52.578;8.138;2023-02-17T12:36:49;14.60;;;7.53;;
20411;SDS011;10365;52.578;8.138;2023-02-17T12:39:17;12.60;;;7.78;;
20411;SDS011;10365;52.578;8.138;2023-02-17T12:41:50;10.68;;;7.60;;
20411;SDS011;10365;52.578;8.138;2023-02-17T12:44:18;11.15;;;7.28;;
20411;SDS011;10365;52.578;8.138;2023-02-17T12:46:46;11.43;;;6.60;;
20411;SDS011;10365;52.578;8.138;2023-02-17T12:51:42;13.25;;;7.60;;
20411;SDS011;10365;52.578;8.138;2023-02-17T12:59:10;11.35;;;6.85;;
20411;SDS011;10365;52.578;8.138;2023-02-17T13:01:36;12.75;;;7.43;;
20411;SDS011;10365;52.578;8.138;2023-02-17T13:04:03;12.32;;;7.45;;
20411;SDS011;10365;52.578;8.138;2023-02-17T13:06:31;11.73;;;7.25;;
20411;SDS011;10365;52.578;8.138;2023-02-17T13:11:44;11.55;;;7.25;;
20411;SDS011;10365;52.578;8.138;2023-02-17T13:17:05;11.60;;;7.03;;
20411;SDS011;10365;52.578;8.138;2023-02-17T13:19:31;12.30;;;7.70;;
20411;SDS011;10365;52.578;8.138;2023-02-17T13:21:57;15.43;;;8.00;;
20411;SDS011;10365;52.578;8.138;2023-02-17T13:27:08;14.48;;;7.78;;
20411;SDS011;10365;52.578;8.138;2023-02-17T13:29:34;12.63;;;7.82;;
20411;SDS011;10365;52.578;8.138;2023-02-17T13:32:01;13.77;;;7.68;;
20411;SDS011;10365;52.578;8.138;2023-02-17T13:36:53;12.52;;;7.45;;
20411;SDS011;10365;52.578;8.138;2023-02-17T13:41:50;13.18;;;7.57;;
20411;SDS011;10365;52.578;8.138;2023-02-17T13:46:57;15.10;;;7.75;;
20411;SDS011;10365;52.578;8.138;2023-02-17T13:49:24;15.38;;;8.45;;
20411;SDS011;10365;52.578;8.138;2023-02-17T13:51:52;14.80;;;8.63;;
20411;SDS011;10365;52.578;8.138;2023-02-17T13:54:18;17.40;;;8.38;;
20411;SDS011;10365;52.578;8.138;2023-02-17T13:56:48;15.23;;;8.80;;
20411;SDS011;10365;52.578;8.138;2023-02-17T13:59:15;17.85;;;8.13;;
20411;SDS011;10365;52.578;8.138;2023-02-17T14:01:42;16.48;;;8.02;;
20411;SDS011;10365;52.578;8.138;2023-02-17T14:06:45;14.32;;;9.05;;
20411;SDS011;10365;52.578;8.138;2023-02-17T14:09:30;17.92;;;9.13;;
20411;SDS011;10365;52.578;8.138;2023-02-17T14:11:56;16.27;;;8.50;;
20411;SDS011;10365;52.578;8.138;2023-02-17T14:14:22;13.82;;;7.88;;
20411;SDS011;10365;52.578;8.138;2023-02-17T14:19:41;14.82;;;8.60;;
20411;SDS011;10365;52.578;8.138;2023-02-17T14:22:20;15.93;;;8.98;;
20411;SDS011;10365;52.578;8.138;2023-02-17T14:24:46;18.65;;;8.43;;
20411;SDS011;10365;52.578;8.138;2023-02-17T14:27:21;18.77;;;8.32;;
20411;SDS011;10365;52.578;8.138;2023-02-17T14:29:47;17.05;;;7.50;;
20411;SDS011;10365;52.578;8.138;2023-02-17T14:32:26;18.50;;;9.15;;
20411;SDS011;10365;52.578;8.138;2023-02-17T14:34:51;11.23;;;6.78;;
20411;SDS011;10365;52.578;8.138;2023-02-17T14:37:18;13.32;;;7.35;;
20411;SDS011;10365;52.578;8.138;2023-02-17T14:39:46;14.00;;;7.32;;
20411;SDS011;10365;52.578;8.138;2023-02-17T14:42:12;10.65;;;6.40;;
20411;SDS011;10365;52.578;8.138;2023-02-17T14:44:37;13.32;;;6.65;;
20411;SDS011;10365;52.578;8.138;2023-02-17T14:47:06;13.57;;;5.80;;
20411;SDS011;10365;52.578;8.138;2023-02-17T14:49:31;10.63;;;6.38;;
20411;SDS011;10365;52.578;8.138;2023-02-17T14:51:57;14.10;;;6.78;;
20411;SDS011;10365;52.578;8.138;2023-02-17T14:54:22;11.98;;;5.65;;
20411;SDS011;10365;52.578;8.138;2023-02-17T14:59:15;11.05;;;5.25;;
20411;SDS011;10365;52.578;8.138;2023-02-17T15:01:41;15.05;;;6.05;;
20411;SDS011;10365;52.578;8.138;2023-02-17T15:04:06;12.50;;;5.45;;
20411;SDS011;10365;52.578;8.138;2023-02-17T15:06:39;11.50;;;5.50;;
20411;SDS011;10365;52.578;8.138;2023-02-17T15:09:10;10.68;;;4.95;;
20411;SDS011;10365;52.578;8.138;2023-02-17T15:11:35;11.95;;;5.22;;
20411;SDS011;10365;52.578;8.138;2023-02-17T15:14:02;9.75;;;5.25;;
20411;SDS011;10365;52.578;8.138;2023-02-17T15:16:27;13.35;;;5.30;;
20411;SDS011;10365;52.578;8.138;2023-02-17T15:18:52;12.65;;;4.80;;
20411;SDS011;10365;52.578;8.138;2023-02-17T15:21:25;7.38;;;4.38;;
20411;SDS011;10365;52.578;8.138;2023-02-17T15:23:51;11.27;;;4.82;;
20411;SDS011;10365;52.578;8.138;2023-02-17T15:26:17;10.25;;;4.85;;
20411;SDS011;10365;52.578;8.138;2023-02-17T15:28:42;14.07;;;6.55;;
20411;SDS011;10365;52.578;8.138;2023-02-17T15:31:08;11.43;;;5.28;;
20411;SDS011;10365;52.578;8.138;2023-02-17T15:33:35;16.38;;;5.10;;
20411;SDS011;10365;52.578;8.138;2023-02-17T15:36:00;18.33;;;6.68;;
20411;SDS011;10365;52.578;8.138;2023-02-17T15:38:26;10.65;;;5.20;;
20411;SDS011;10365;52.578;8.138;2023-02-17T15:40:51;13.85;;;5.05;;
20411;SDS011;10365;52.578;8.138;2023-02-17T15:43:20;11.45;;;5.43;;
20411;SDS011;10365;52.578;8.138;2023-02-17T15:45:46;9.88;;;4.82;;
20411;SDS011;10365;52.578;8.138;2023-02-17T15:48:13;9.85;;;4.75;;
20411;SDS011;10365;52.578;8.138;2023-02-17T15:50:42;11.73;;;5.07;;
20411;SDS011;10365;52.578;8.138;2023-02-17T15:53:08;7.45;;;4.60;;
20411;SDS011;10365;52.578;8.138;2023-02-17T15:55:33;8.70;;;4.40;;
20411;SDS011;10365;52.578;8.138;2023-02-17T15:58:00;8.50;;;4.43;;
20411;SDS011;10365;52.578;8.138;2023-02-17T16:00:27;10.10;;;4.88;;
20411;SDS011;10365;52.578;8.138;2023-02-17T16:02:53;8.35;;;4.10;;
20411;SDS011;10365;52.578;8.138;2023-02-17T16:05:20;12.73;;;4.90;;
20411;SDS011;10365;52.578;8.138;2023-02-17T16:07:46;9.60;;;4.30;;
20411;SDS011;10365;52.578;8.138;2023-02-17T16:10:15;11.30;;;4.68;;
20411;SDS011;10365;52.578;8.138;2023-02-17T16:12:41;7.18;;;3.63;;
20411;SDS011;10365;52.578;8.138;2023-02-17T16:15:10;7.30;;;3.45;;
20411;SDS011;10365;52.578;8.138;2023-02-17T16:17:37;9.30;;;3.90;;